sensor_id;sensor_type;location;lat;lon;timestamp;P1;durP1;ratioP1;P2;durP2;ratioP2
11761;SDS011;5938;47.098;15.474;2024-03-23T00:54:24;37.00;;;6.37;;
11761;SDS011;5938;47.098;15.474;2024-03-23T00:58:26;33.13;;;6.00;;
11761;SDS011;5938;47.098;15.474;2024-03-23T01:02:29;44.30;;;6.20;;
11761;SDS011;5938;47.098;15.474;2024-03-23T01:06:31;36.13;;;5.90;;
11761;SDS011;5938;47.098;15.474;2024-03-23T01:10:35;33.83;;;5.47;;
11761;SDS011;5938;47.098;15.474;2024-03-23T01:14:37;35.10;;;5.77;;
11761;SDS011;5938;47.098;15.474;2024-03-23T01:18:40;35.30;;;5.23;;
11761;SDS011;5938;47.098;15.474;2024-03-23T01:22:42;33.73;;;4.50;;
11761;SDS011;5938;47.098;15.474;2024-03-23T01:26:46;35.80;;;5.70;;
11761;SDS011;5938;47.098;15.474;2024-03-23T01:30:49;34.40;;;5.63;;
11761;SDS011;5938;47.098;15.474;2024-03-23T01:34:51;33.50;;;5.67;;
11761;SDS011;5938;47.098;15.474;2024-03-23T01:38:54;33.00;;;5.20;;
11761;SDS011;5938;47.098;15.474;2024-03-23T01:42:58;33.47;;;5.73;;
11761;SDS011;5938;47.098;15.474;2024-03-23T01:47:05;38.80;;;6.20;;
11761;SDS011;5938;47.098;15.474;2024-03-23T01:51:08;38.37;;;5.30;;
11761;SDS011;5938;47.098;15.474;2024-03-23T01:55:11;41.43;;;5.70;;
11761;SDS011;5938;47.098;15.474;2024-03-23T01:59:15;35.07;;;5.90;;
11761;SDS011;5938;47.098;15.474;2024-03-23T02:03:24;36.70;;;7.20;;
11761;SDS011;5938;47.098;15.474;2024-03-23T02:07:27;35.67;;;6.20;;
11761;SDS011;5938;47.098;15.474;2024-03-23T02:11:29;35.67;;;6.07;;
11761;SDS011;5938;47.098;15.474;2024-03-23T02:15:33;34.73;;;6.27;;
11761;SDS011;5938;47.098;15.474;2024-03-23T02:19:35;33.20;;;5.87;;
11761;SDS011;5938;47.098;15.474;2024-03-23T02:23:39;32.67;;;5.30;;
11761;SDS011;5938;47.098;15.474;2024-03-23T02:27:42;34.03;;;6.43;;
11761;SDS011;5938;47.098;15.474;2024-03-23T02:31:44;36.27;;;7.07;;
11761;SDS011;5938;47.098;15.474;2024-03-23T02:35:46;34.37;;;6.30;;
11761;SDS011;5938;47.098;15.474;2024-03-23T02:39:50;34.33;;;6.63;;
11761;SDS011;5938;47.098;15.474;2024-03-23T02:43:53;35.13;;;6.97;;
11761;SDS011;5938;47.098;15.474;2024-03-23T02:47:55;39.70;;;8.40;;
11761;SDS011;5938;47.098;15.474;2024-03-23T02:51:58;38.40;;;8.07;;
11761;SDS011;5938;47.098;15.474;2024-03-23T02:56:02;44.20;;;10.20;;
11761;SDS011;5938;47.098;15.474;2024-03-23T03:00:05;52.77;;;11.17;;
11761;SDS011;5938;47.098;15.474;2024-03-23T03:04:08;42.43;;;7.77;;
11761;SDS011;5938;47.098;15.474;2024-03-23T03:08:11;37.23;;;7.10;;
11761;SDS011;5938;47.098;15.474;2024-03-23T03:12:13;40.00;;;7.07;;
11761;SDS011;5938;47.098;15.474;2024-03-23T03:16:16;38.00;;;6.80;;
11761;SDS011;5938;47.098;15.474;2024-03-23T03:20:18;40.03;;;8.80;;
11761;SDS011;5938;47.098;15.474;2024-03-23T03:24:22;42.67;;;8.13;;
11761;SDS011;5938;47.098;15.474;2024-03-23T03:28:26;37.30;;;7.30;;
11761;SDS011;5938;47.098;15.474;2024-03-23T03:32:31;43.90;;;6.90;;
11761;SDS011;5938;47.098;15.474;2024-03-23T03:36:34;35.60;;;6.30;;
11761;SDS011;5938;47.098;15.474;2024-03-23T03:40:36;35.80;;;6.60;;
11761;SDS011;5938;47.098;15.474;2024-03-23T03:44:40;37.43;;;5.97;;
11761;SDS011;5938;47.098;15.474;2024-03-23T03:48:43;34.77;;;5.80;;
11761;SDS011;5938;47.098;15.474;2024-03-23T03:52:48;36.97;;;7.07;;
11761;SDS011;5938;47.098;15.474;2024-03-23T03:56:49;34.67;;;6.23;;
11761;SDS011;5938;47.098;15.474;2024-03-23T04:00:53;35.20;;;6.00;;
11761;SDS011;5938;47.098;15.474;2024-03-23T04:04:56;36.40;;;6.73;;
11761;SDS011;5938;47.098;15.474;2024-03-23T04:08:58;37.90;;;6.27;;
11761;SDS011;5938;47.098;15.474;2024-03-23T04:13:01;34.87;;;6.40;;
11761;SDS011;5938;47.098;15.474;2024-03-23T04:17:06;33.50;;;5.90;;
11761;SDS011;5938;47.098;15.474;2024-03-23T04:21:09;35.00;;;6.17;;
11761;SDS011;5938;47.098;15.474;2024-03-23T04:25:11;37.93;;;6.20;;
11761;SDS011;5938;47.098;15.474;2024-03-23T04:29:15;34.47;;;5.50;;
11761;SDS011;5938;47.098;15.474;2024-03-23T04:33:19;37.20;;;6.33;;
11761;SDS011;5938;47.098;15.474;2024-03-23T04:37:22;33.83;;;5.13;;
11761;SDS011;5938;47.098;15.474;2024-03-23T04:41:24;33.70;;;5.27;;
11761;SDS011;5938;47.098;15.474;2024-03-23T04:45:27;34.97;;;5.73;;
11761;SDS011;5938;47.098;15.474;2024-03-23T04:49:31;35.67;;;6.70;;
11761;SDS011;5938;47.098;15.474;2024-03-23T04:53:33;37.13;;;6.83;;
11761;SDS011;5938;47.098;15.474;2024-03-23T04:57:36;41.83;;;10.17;;
11761;SDS011;5938;47.098;15.474;2024-03-23T05:01:38;36.77;;;8.10;;
11761;SDS011;5938;47.098;15.474;2024-03-23T05:05:43;40.70;;;8.60;;
11761;SDS011;5938;47.098;15.474;2024-03-23T05:09:46;34.73;;;7.30;;
11761;SDS011;5938;47.098;15.474;2024-03-23T05:13:49;36.77;;;7.63;;
11761;SDS011;5938;47.098;15.474;2024-03-23T05:17:51;39.70;;;11.13;;
11761;SDS011;5938;47.098;15.474;2024-03-23T05:21:56;41.93;;;14.47;;
11761;SDS011;5938;47.098;15.474;2024-03-23T05:25:58;40.30;;;11.83;;
11761;SDS011;5938;47.098;15.474;2024-03-23T05:30:01;42.83;;;9.30;;
11761;SDS011;5938;47.098;15.474;2024-03-23T05:34:04;35.50;;;8.73;;
11761;SDS011;5938;47.098;15.474;2024-03-23T05:38:08;36.73;;;8.50;;
11761;SDS011;5938;47.098;15.474;2024-03-23T05:42:10;35.03;;;6.73;;
11761;SDS011;5938;47.098;15.474;2024-03-23T05:46:13;36.77;;;7.17;;
11761;SDS011;5938;47.098;15.474;2024-03-23T05:50:16;34.43;;;7.07;;
11761;SDS011;5938;47.098;15.474;2024-03-23T05:54:20;42.80;;;10.00;;
11761;SDS011;5938;47.098;15.474;2024-03-23T05:58:22;37.50;;;8.87;;
11761;SDS011;5938;47.098;15.474;2024-03-23T06:02:27;36.77;;;9.00;;
11761;SDS011;5938;47.098;15.474;2024-03-23T06:06:29;37.40;;;8.13;;
11761;SDS011;5938;47.098;15.474;2024-03-23T06:10:33;35.10;;;7.77;;
11761;SDS011;5938;47.098;15.474;2024-03-23T06:14:36;38.20;;;9.27;;
11761;SDS011;5938;47.098;15.474;2024-03-23T06:18:39;36.40;;;9.57;;
11761;SDS011;5938;47.098;15.474;2024-03-23T06:22:41;38.60;;;9.80;;
11761;SDS011;5938;47.098;15.474;2024-03-23T06:26:45;36.80;;;9.77;;
11761;SDS011;5938;47.098;15.474;2024-03-23T06:30:48;35.80;;;7.57;;
11761;SDS011;5938;47.098;15.474;2024-03-23T06:34:50;38.03;;;8.43;;
11761;SDS011;5938;47.098;15.474;2024-03-23T06:38:53;37.27;;;8.13;;
11761;SDS011;5938;47.098;15.474;2024-03-23T06:42:57;34.93;;;7.03;;
11761;SDS011;5938;47.098;15.474;2024-03-23T06:46:59;34.73;;;7.27;;
11761;SDS011;5938;47.098;15.474;2024-03-23T06:51:03;36.70;;;8.20;;
11761;SDS011;5938;47.098;15.474;2024-03-23T06:55:07;39.60;;;8.10;;
11761;SDS011;5938;47.098;15.474;2024-03-23T06:59:11;35.20;;;7.43;;
11761;SDS011;5938;47.098;15.474;2024-03-23T07:03:14;39.50;;;9.80;;
11761;SDS011;5938;47.098;15.474;2024-03-23T07:07:16;38.90;;;8.93;;
11761;SDS011;5938;47.098;15.474;2024-03-23T07:11:19;40.30;;;11.37;;
11761;SDS011;5938;47.098;15.474;2024-03-23T07:15:23;41.33;;;12.90;;
11761;SDS011;5938;47.098;15.474;2024-03-23T07:19:25;43.43;;;19.93;;
11761;SDS011;5938;47.098;15.474;2024-03-23T07:23:28;40.53;;;14.20;;
11761;SDS011;5938;47.098;15.474;2024-03-23T07:27:31;36.40;;;10.20;;
11761;SDS011;5938;47.098;15.474;2024-03-23T07:31:35;35.57;;;9.57;;
11761;SDS011;5938;47.098;15.474;2024-03-23T07:35:39;34.43;;;7.40;;
11761;SDS011;5938;47.098;15.474;2024-03-23T07:39:41;36.40;;;11.90;;
11761;SDS011;5938;47.098;15.474;2024-03-23T07:43:50;34.30;;;8.50;;
11761;SDS011;5938;47.098;15.474;2024-03-23T07:48:07;32.27;;;6.80;;
11761;SDS011;5938;47.098;15.474;2024-03-23T07:52:10;39.90;;;6.97;;
11761;SDS011;5938;47.098;15.474;2024-03-23T07:56:11;35.57;;;9.33;;
11761;SDS011;5938;47.098;15.474;2024-03-23T08:00:15;31.87;;;6.20;;
11761;SDS011;5938;47.098;15.474;2024-03-23T08:04:20;41.23;;;13.80;;
11761;SDS011;5938;47.098;15.474;2024-03-23T08:08:22;32.20;;;7.47;;
11761;SDS011;5938;47.098;15.474;2024-03-23T08:12:25;31.50;;;6.00;;
11761;SDS011;5938;47.098;15.474;2024-03-23T08:16:27;30.90;;;6.80;;
11761;SDS011;5938;47.098;15.474;2024-03-23T08:20:31;36.03;;;7.07;;
11761;SDS011;5938;47.098;15.474;2024-03-23T08:24:34;31.60;;;7.50;;
11761;SDS011;5938;47.098;15.474;2024-03-23T08:28:36;30.43;;;6.33;;
11761;SDS011;5938;47.098;15.474;2024-03-23T08:32:39;28.77;;;5.00;;
11761;SDS011;5938;47.098;15.474;2024-03-23T08:36:43;30.57;;;5.40;;
11761;SDS011;5938;47.098;15.474;2024-03-23T08:40:46;28.40;;;5.37;;
11761;SDS011;5938;47.098;15.474;2024-03-23T08:44:48;27.77;;;5.07;;
11761;SDS011;5938;47.098;15.474;2024-03-23T08:48:51;28.83;;;5.20;;
11761;SDS011;5938;47.098;15.474;2024-03-23T08:52:54;31.40;;;4.80;;
11761;SDS011;5938;47.098;15.474;2024-03-23T08:56:57;28.77;;;5.67;;
11761;SDS011;5938;47.098;15.474;2024-03-23T09:01:02;24.13;;;4.23;;
11761;SDS011;5938;47.098;15.474;2024-03-23T09:05:06;24.00;;;4.43;;
11761;SDS011;5938;47.098;15.474;2024-03-23T09:09:10;22.60;;;4.90;;
11761;SDS011;5938;47.098;15.474;2024-03-23T09:13:12;22.23;;;7.60;;
11761;SDS011;5938;47.098;15.474;2024-03-23T09:17:16;19.17;;;4.40;;
11761;SDS011;5938;47.098;15.474;2024-03-23T09:21:19;19.10;;;4.77;;
11761;SDS011;5938;47.098;15.474;2024-03-23T09:25:23;20.77;;;7.07;;
11761;SDS011;5938;47.098;15.474;2024-03-23T09:29:26;22.30;;;5.40;;
11761;SDS011;5938;47.098;15.474;2024-03-23T09:33:28;21.53;;;5.93;;
11761;SDS011;5938;47.098;15.474;2024-03-23T09:37:31;21.53;;;6.67;;
11761;SDS011;5938;47.098;15.474;2024-03-23T09:41:34;25.90;;;6.13;;
11761;SDS011;5938;47.098;15.474;2024-03-23T09:45:38;24.87;;;6.10;;
11761;SDS011;5938;47.098;15.474;2024-03-23T09:49:41;27.77;;;7.27;;
11761;SDS011;5938;47.098;15.474;2024-03-23T09:53:43;26.40;;;6.40;;
11761;SDS011;5938;47.098;15.474;2024-03-23T09:57:47;27.03;;;6.00;;
11761;SDS011;5938;47.098;15.474;2024-03-23T10:01:50;25.87;;;6.60;;
11761;SDS011;5938;47.098;15.474;2024-03-23T10:06:03;23.83;;;5.50;;
11761;SDS011;5938;47.098;15.474;2024-03-23T10:10:10;21.37;;;5.03;;
11761;SDS011;5938;47.098;15.474;2024-03-23T10:14:23;27.40;;;5.50;;
11761;SDS011;5938;47.098;15.474;2024-03-23T10:18:30;21.67;;;6.30;;
11761;SDS011;5938;47.098;15.474;2024-03-23T10:22:36;20.87;;;5.93;;
11761;SDS011;5938;47.098;15.474;2024-03-23T10:26:39;22.30;;;5.90;;
11761;SDS011;5938;47.098;15.474;2024-03-23T10:30:43;20.00;;;5.00;;
11761;SDS011;5938;47.098;15.474;2024-03-23T10:34:45;20.63;;;5.40;;
11761;SDS011;5938;47.098;15.474;2024-03-23T10:38:49;23.87;;;6.30;;
11761;SDS011;5938;47.098;15.474;2024-03-23T10:42:52;22.53;;;5.63;;
11761;SDS011;5938;47.098;15.474;2024-03-23T10:47:02;22.17;;;5.57;;
11761;SDS011;5938;47.098;15.474;2024-03-23T10:51:07;21.77;;;6.50;;
11761;SDS011;5938;47.098;15.474;2024-03-23T10:55:11;18.13;;;4.97;;
11761;SDS011;5938;47.098;15.474;2024-03-23T10:59:14;19.50;;;4.80;;
11761;SDS011;5938;47.098;15.474;2024-03-23T11:03:35;17.53;;;4.63;;
11761;SDS011;5938;47.098;15.474;2024-03-23T11:07:39;17.33;;;4.87;;
11761;SDS011;5938;47.098;15.474;2024-03-23T11:11:51;19.33;;;4.50;;
11761;SDS011;5938;47.098;15.474;2024-03-23T11:15:53;25.20;;;5.40;;
11761;SDS011;5938;47.098;15.474;2024-03-23T11:19:57;19.53;;;4.90;;
11761;SDS011;5938;47.098;15.474;2024-03-23T11:24:12;17.27;;;4.87;;
11761;SDS011;5938;47.098;15.474;2024-03-23T11:28:15;20.27;;;5.20;;
11761;SDS011;5938;47.098;15.474;2024-03-23T11:32:18;17.30;;;4.03;;
11761;SDS011;5938;47.098;15.474;2024-03-23T11:36:31;17.30;;;4.57;;
11761;SDS011;5938;47.098;15.474;2024-03-23T11:40:35;16.67;;;4.20;;
11761;SDS011;5938;47.098;15.474;2024-03-23T11:44:39;16.20;;;4.37;;
11761;SDS011;5938;47.098;15.474;2024-03-23T11:48:49;15.73;;;4.50;;
11761;SDS011;5938;47.098;15.474;2024-03-23T11:52:53;15.20;;;4.13;;
11761;SDS011;5938;47.098;15.474;2024-03-23T11:57:07;14.87;;;4.20;;
11761;SDS011;5938;47.098;15.474;2024-03-23T12:01:10;15.50;;;4.10;;
11761;SDS011;5938;47.098;15.474;2024-03-23T12:05:14;15.40;;;3.87;;
11761;SDS011;5938;47.098;15.474;2024-03-23T12:09:18;15.60;;;4.20;;
11761;SDS011;5938;47.098;15.474;2024-03-23T12:13:21;16.70;;;4.87;;
11761;SDS011;5938;47.098;15.474;2024-03-23T12:17:24;14.83;;;4.33;;
11761;SDS011;5938;47.098;15.474;2024-03-23T12:21:27;13.60;;;4.47;;
11761;SDS011;5938;47.098;15.474;2024-03-23T12:25:31;14.00;;;4.40;;
11761;SDS011;5938;47.098;15.474;2024-03-23T12:29:34;17.37;;;5.00;;
11761;SDS011;5938;47.098;15.474;2024-03-23T12:33:36;15.80;;;4.30;;
11761;SDS011;5938;47.098;15.474;2024-03-23T12:37:39;16.83;;;5.43;;
11761;SDS011;5938;47.098;15.474;2024-03-23T12:41:43;15.57;;;4.87;;
11761;SDS011;5938;47.098;15.474;2024-03-23T12:45:46;16.13;;;5.27;;
11761;SDS011;5938;47.098;15.474;2024-03-23T12:49:50;16.27;;;4.40;;
11761;SDS011;5938;47.098;15.474;2024-03-23T12:53:53;18.70;;;4.73;;
11761;SDS011;5938;47.098;15.474;2024-03-23T12:58:00;16.23;;;4.90;;
11761;SDS011;5938;47.098;15.474;2024-03-23T13:02:04;15.00;;;3.73;;
11761;SDS011;5938;47.098;15.474;2024-03-23T13:06:07;15.60;;;5.13;;
11761;SDS011;5938;47.098;15.474;2024-03-23T13:10:11;14.37;;;3.93;;
11761;SDS011;5938;47.098;15.474;2024-03-23T13:14:19;14.40;;;3.90;;
11761;SDS011;5938;47.098;15.474;2024-03-23T13:18:24;16.87;;;5.07;;
11761;SDS011;5938;47.098;15.474;2024-03-23T13:22:27;19.50;;;4.57;;
11761;SDS011;5938;47.098;15.474;2024-03-23T13:26:30;13.60;;;4.30;;
11761;SDS011;5938;47.098;15.474;2024-03-23T13:30:35;13.30;;;4.40;;
11761;SDS011;5938;47.098;15.474;2024-03-23T13:34:36;13.90;;;3.87;;
11761;SDS011;5938;47.098;15.474;2024-03-23T13:38:39;14.50;;;4.10;;
11761;SDS011;5938;47.098;15.474;2024-03-23T13:42:42;14.80;;;4.60;;
11761;SDS011;5938;47.098;15.474;2024-03-23T13:46:46;16.60;;;3.83;;
11761;SDS011;5938;47.098;15.474;2024-03-23T13:50:56;13.10;;;3.13;;
11761;SDS011;5938;47.098;15.474;2024-03-23T13:55:01;14.90;;;4.00;;
11761;SDS011;5938;47.098;15.474;2024-03-23T13:59:04;15.10;;;3.60;;
11761;SDS011;5938;47.098;15.474;2024-03-23T14:03:08;17.87;;;4.57;;
11761;SDS011;5938;47.098;15.474;2024-03-23T14:07:11;19.47;;;4.23;;
11761;SDS011;5938;47.098;15.474;2024-03-23T14:11:17;18.37;;;4.13;;
11761;SDS011;5938;47.098;15.474;2024-03-23T14:15:21;18.17;;;3.93;;
11761;SDS011;5938;47.098;15.474;2024-03-23T14:19:25;17.40;;;4.53;;
11761;SDS011;5938;47.098;15.474;2024-03-23T14:23:30;16.23;;;4.00;;
11761;SDS011;5938;47.098;15.474;2024-03-23T14:27:34;16.70;;;4.20;;
11761;SDS011;5938;47.098;15.474;2024-03-23T14:31:38;17.80;;;4.53;;
11761;SDS011;5938;47.098;15.474;2024-03-23T14:35:42;15.50;;;4.30;;
11761;SDS011;5938;47.098;15.474;2024-03-23T14:39:44;17.10;;;5.00;;
11761;SDS011;5938;47.098;15.474;2024-03-23T14:43:49;17.00;;;4.70;;
11761;SDS011;5938;47.098;15.474;2024-03-23T14:47:54;21.87;;;4.90;;
11761;SDS011;5938;47.098;15.474;2024-03-23T14:52:00;22.47;;;5.00;;
11761;SDS011;5938;47.098;15.474;2024-03-23T14:56:03;20.53;;;5.20;;
11761;SDS011;5938;47.098;15.474;2024-03-23T15:00:08;20.87;;;4.57;;
11761;SDS011;5938;47.098;15.474;2024-03-23T15:04:13;23.10;;;5.03;;
11761;SDS011;5938;47.098;15.474;2024-03-23T15:08:17;22.17;;;4.77;;
11761;SDS011;5938;47.098;15.474;2024-03-23T15:12:20;22.27;;;5.00;;
11761;SDS011;5938;47.098;15.474;2024-03-23T15:16:22;25.50;;;4.00;;
11761;SDS011;5938;47.098;15.474;2024-03-23T15:20:26;21.93;;;5.17;;
11761;SDS011;5938;47.098;15.474;2024-03-23T15:24:30;22.73;;;3.47;;
11761;SDS011;5938;47.098;15.474;2024-03-23T15:28:35;27.20;;;5.37;;
11761;SDS011;5938;47.098;15.474;2024-03-23T15:33:07;26.43;;;4.67;;
11761;SDS011;5938;47.098;15.474;2024-03-23T15:37:12;37.40;;;6.80;;
11761;SDS011;5938;47.098;15.474;2024-03-23T15:41:20;28.17;;;2.23;;
11761;SDS011;5938;47.098;15.474;2024-03-23T15:45:25;23.47;;;1.70;;
11761;SDS011;5938;47.098;15.474;2024-03-23T15:49:43;22.90;;;1.63;;
11761;SDS011;5938;47.098;15.474;2024-03-23T15:53:45;23.20;;;1.30;;
11761;SDS011;5938;47.098;15.474;2024-03-23T15:57:49;23.03;;;1.30;;
11761;SDS011;5938;47.098;15.474;2024-03-23T16:01:52;29.03;;;1.20;;
11761;SDS011;5938;47.098;15.474;2024-03-23T16:05:56;24.90;;;1.40;;
11761;SDS011;5938;47.098;15.474;2024-03-23T16:10:04;24.90;;;1.10;;
11761;SDS011;5938;47.098;15.474;2024-03-23T16:14:11;26.40;;;1.50;;
11761;SDS011;5938;47.098;15.474;2024-03-23T16:18:13;26.63;;;3.60;;
11761;SDS011;5938;47.098;15.474;2024-03-23T16:22:16;28.57;;;2.10;;
11761;SDS011;5938;47.098;15.474;2024-03-23T16:26:19;27.43;;;3.37;;
11761;SDS011;5938;47.098;15.474;2024-03-23T16:30:23;25.70;;;1.80;;
11761;SDS011;5938;47.098;15.474;2024-03-23T16:34:26;29.23;;;9.10;;
11761;SDS011;5938;47.098;15.474;2024-03-23T16:38:50;27.87;;;2.20;;
11761;SDS011;5938;47.098;15.474;2024-03-23T16:42:52;27.80;;;1.80;;
11761;SDS011;5938;47.098;15.474;2024-03-23T16:46:56;28.90;;;1.60;;
11761;SDS011;5938;47.098;15.474;2024-03-23T16:51:01;28.50;;;2.47;;
11761;SDS011;5938;47.098;15.474;2024-03-23T16:55:05;32.67;;;2.73;;
11761;SDS011;5938;47.098;15.474;2024-03-23T16:59:08;29.27;;;2.67;;
11761;SDS011;5938;47.098;15.474;2024-03-23T17:03:20;29.43;;;2.67;;
11761;SDS011;5938;47.098;15.474;2024-03-23T17:07:23;29.93;;;2.93;;
11761;SDS011;5938;47.098;15.474;2024-03-23T17:11:30;30.60;;;2.00;;
11761;SDS011;5938;47.098;15.474;2024-03-23T17:15:42;30.37;;;3.00;;
11761;SDS011;5938;47.098;15.474;2024-03-23T17:20:00;30.20;;;2.33;;
11761;SDS011;5938;47.098;15.474;2024-03-23T17:24:10;30.80;;;2.80;;
11761;SDS011;5938;47.098;15.474;2024-03-23T17:28:13;30.03;;;2.30;;
11761;SDS011;5938;47.098;15.474;2024-03-23T17:32:16;30.00;;;1.90;;
11761;SDS011;5938;47.098;15.474;2024-03-23T17:36:21;30.67;;;2.97;;
11761;SDS011;5938;47.098;15.474;2024-03-23T17:40:31;30.67;;;2.37;;
11761;SDS011;5938;47.098;15.474;2024-03-23T17:44:35;31.23;;;2.50;;
11761;SDS011;5938;47.098;15.474;2024-03-23T17:48:37;30.17;;;2.80;;
11761;SDS011;5938;47.098;15.474;2024-03-23T17:52:42;31.53;;;3.00;;
11761;SDS011;5938;47.098;15.474;2024-03-23T17:56:45;29.60;;;2.10;;
11761;SDS011;5938;47.098;15.474;2024-03-23T18:00:48;30.53;;;3.17;;
11761;SDS011;5938;47.098;15.474;2024-03-23T18:04:51;31.00;;;2.60;;
11761;SDS011;5938;47.098;15.474;2024-03-23T18:08:55;30.37;;;2.70;;
11761;SDS011;5938;47.098;15.474;2024-03-23T18:13:00;30.17;;;2.90;;
11761;SDS011;5938;47.098;15.474;2024-03-23T18:17:02;29.63;;;2.83;;
11761;SDS011;5938;47.098;15.474;2024-03-23T18:21:05;30.57;;;4.90;;
11761;SDS011;5938;47.098;15.474;2024-03-23T18:25:10;30.37;;;2.77;;
11761;SDS011;5938;47.098;15.474;2024-03-23T18:29:19;29.80;;;2.60;;
11761;SDS011;5938;47.098;15.474;2024-03-23T18:33:32;31.43;;;6.90;;
11761;SDS011;5938;47.098;15.474;2024-03-23T18:37:37;30.50;;;2.50;;
11761;SDS011;5938;47.098;15.474;2024-03-23T18:41:41;30.07;;;2.77;;
11761;SDS011;5938;47.098;15.474;2024-03-23T18:45:47;31.57;;;2.77;;
11761;SDS011;5938;47.098;15.474;2024-03-23T18:49:50;35.90;;;5.10;;
11761;SDS011;5938;47.098;15.474;2024-03-23T18:53:53;31.07;;;2.80;;
11761;SDS011;5938;47.098;15.474;2024-03-23T18:58:01;31.37;;;2.57;;
11761;SDS011;5938;47.098;15.474;2024-03-23T19:02:04;30.60;;;2.77;;
11761;SDS011;5938;47.098;15.474;2024-03-23T19:06:10;31.37;;;2.30;;
11761;SDS011;5938;47.098;15.474;2024-03-23T19:10:16;30.83;;;2.57;;
11761;SDS011;5938;47.098;15.474;2024-03-23T19:14:23;30.63;;;1.77;;
11761;SDS011;5938;47.098;15.474;2024-03-23T19:18:26;30.50;;;1.67;;
11761;SDS011;5938;47.098;15.474;2024-03-23T19:22:30;30.50;;;2.30;;
11761;SDS011;5938;47.098;15.474;2024-03-23T19:26:52;30.30;;;1.47;;
11761;SDS011;5938;47.098;15.474;2024-03-23T19:31:16;30.53;;;1.90;;
11761;SDS011;5938;47.098;15.474;2024-03-23T19:35:19;30.20;;;1.37;;
11761;SDS011;5938;47.098;15.474;2024-03-23T19:39:26;30.30;;;1.57;;
11761;SDS011;5938;47.098;15.474;2024-03-23T19:43:41;32.13;;;2.23;;
11761;SDS011;5938;47.098;15.474;2024-03-23T19:47:46;30.77;;;1.90;;
11761;SDS011;5938;47.098;15.474;2024-03-23T19:51:53;31.30;;;2.03;;
11761;SDS011;5938;47.098;15.474;2024-03-23T19:55:57;29.97;;;1.60;;
11761;SDS011;5938;47.098;15.474;2024-03-23T20:00:01;30.30;;;1.50;;
11761;SDS011;5938;47.098;15.474;2024-03-23T20:04:05;29.53;;;1.40;;
11761;SDS011;5938;47.098;15.474;2024-03-23T20:08:09;30.70;;;1.97;;
11761;SDS011;5938;47.098;15.474;2024-03-23T20:12:11;30.80;;;1.70;;
11761;SDS011;5938;47.098;15.474;2024-03-23T20:16:14;31.20;;;2.37;;
11761;SDS011;5938;47.098;15.474;2024-03-23T20:20:19;29.40;;;1.77;;
11761;SDS011;5938;47.098;15.474;2024-03-23T20:24:21;29.77;;;1.63;;
11761;SDS011;5938;47.098;15.474;2024-03-23T20:28:29;29.33;;;2.20;;
11761;SDS011;5938;47.098;15.474;2024-03-23T20:33:24;30.07;;;1.50;;
11761;SDS011;5938;47.098;15.474;2024-03-23T20:37:44;29.50;;;1.47;;
11761;SDS011;5938;47.098;15.474;2024-03-23T20:41:47;31.60;;;3.50;;
11761;SDS011;5938;47.098;15.474;2024-03-23T20:45:54;29.30;;;1.47;;
11761;SDS011;5938;47.098;15.474;2024-03-23T20:50:01;29.90;;;1.53;;
11761;SDS011;5938;47.098;15.474;2024-03-23T20:54:12;29.50;;;1.83;;
11761;SDS011;5938;47.098;15.474;2024-03-23T20:58:18;30.60;;;3.23;;
11761;SDS011;5938;47.098;15.474;2024-03-23T21:02:21;30.90;;;2.73;;
11761;SDS011;5938;47.098;15.474;2024-03-23T21:06:27;29.50;;;1.97;;
11761;SDS011;5938;47.098;15.474;2024-03-23T21:10:33;30.63;;;1.87;;
11761;SDS011;5938;47.098;15.474;2024-03-23T21:14:37;30.20;;;2.00;;
11761;SDS011;5938;47.098;15.474;2024-03-23T21:18:40;31.23;;;2.07;;
11761;SDS011;5938;47.098;15.474;2024-03-23T21:22:42;30.50;;;2.37;;
11761;SDS011;5938;47.098;15.474;2024-03-23T21:26:46;29.47;;;2.20;;
11761;SDS011;5938;47.098;15.474;2024-03-23T21:30:49;30.80;;;2.20;;
11761;SDS011;5938;47.098;15.474;2024-03-23T21:34:52;30.50;;;2.07;;
11761;SDS011;5938;47.098;15.474;2024-03-23T21:38:54;30.43;;;2.10;;
11761;SDS011;5938;47.098;15.474;2024-03-23T21:42:59;33.67;;;2.70;;
11761;SDS011;5938;47.098;15.474;2024-03-23T21:47:02;33.00;;;2.90;;
11761;SDS011;5938;47.098;15.474;2024-03-23T21:51:05;31.27;;;2.90;;
11761;SDS011;5938;47.098;15.474;2024-03-23T21:55:08;30.90;;;2.60;;
11761;SDS011;5938;47.098;15.474;2024-03-23T21:59:12;31.40;;;2.67;;
11761;SDS011;5938;47.098;15.474;2024-03-23T22:03:15;34.40;;;4.87;;
11761;SDS011;5938;47.098;15.474;2024-03-23T22:07:17;30.73;;;2.40;;
11761;SDS011;5938;47.098;15.474;2024-03-23T22:11:19;31.87;;;4.30;;
11761;SDS011;5938;47.098;15.474;2024-03-23T22:15:22;33.57;;;6.20;;
11761;SDS011;5938;47.098;15.474;2024-03-23T22:19:25;32.07;;;4.07;;
11761;SDS011;5938;47.098;15.474;2024-03-23T22:23:28;31.93;;;2.80;;
11761;SDS011;5938;47.098;15.474;2024-03-23T22:27:31;30.70;;;2.77;;
11761;SDS011;5938;47.098;15.474;2024-03-23T22:31:35;31.17;;;2.50;;
11761;SDS011;5938;47.098;15.474;2024-03-23T22:35:40;32.73;;;3.90;;
11761;SDS011;5938;47.098;15.474;2024-03-23T22:39:45;31.50;;;3.10;;
11761;SDS011;5938;47.098;15.474;2024-03-23T22:43:47;31.20;;;3.60;;
11761;SDS011;5938;47.098;15.474;2024-03-23T22:47:52;34.60;;;4.03;;
11761;SDS011;5938;47.098;15.474;2024-03-23T22:51:55;31.17;;;3.80;;
11761;SDS011;5938;47.098;15.474;2024-03-23T22:55:58;34.00;;;3.60;;
11761;SDS011;5938;47.098;15.474;2024-03-23T23:00:01;31.00;;;2.93;;
11761;SDS011;5938;47.098;15.474;2024-03-23T23:04:10;30.83;;;2.83;;
11761;SDS011;5938;47.098;15.474;2024-03-23T23:08:13;30.03;;;2.87;;
11761;SDS011;5938;47.098;15.474;2024-03-23T23:12:16;34.20;;;4.20;;
11761;SDS011;5938;47.098;15.474;2024-03-23T23:16:19;31.20;;;3.13;;
11761;SDS011;5938;47.098;15.474;2024-03-23T23:20:23;31.10;;;3.43;;
11761;SDS011;5938;47.098;15.474;2024-03-23T23:24:25;30.47;;;2.67;;
11761;SDS011;5938;47.098;15.474;2024-03-23T23:28:27;30.67;;;3.00;;
11761;SDS011;5938;47.098;15.474;2024-03-23T23:32:31;30.97;;;3.10;;
11761;SDS011;5938;47.098;15.474;2024-03-23T23:36:35;31.27;;;3.10;;
11761;SDS011;5938;47.098;15.474;2024-03-23T23:40:37;30.70;;;2.70;;
11761;SDS011;5938;47.098;15.474;2024-03-23T23:44:39;30.87;;;2.80;;
11761;SDS011;5938;47.098;15.474;2024-03-23T23:48:42;32.20;;;3.10;;
11761;SDS011;5938;47.098;15.474;2024-03-23T23:52:46;31.37;;;3.40;;
11761;SDS011;5938;47.098;15.474;2024-03-23T23:56:48;31.43;;;3.43;;
